createdAt,value
2018-10-15T00:00:09.202Z,16.90
2018-10-15T00:02:37.702Z,16.80
2018-10-15T00:05:06.486Z,16.80
2018-10-15T00:07:34.728Z,16.80
2018-10-15T00:10:02.959Z,16.80
2018-10-15T00:12:31.159Z,16.80
2018-10-15T00:15:04.146Z,16.70
2018-10-15T00:17:32.378Z,16.70
2018-10-15T00:20:00.646Z,16.70
2018-10-15T00:22:28.871Z,16.70
2018-10-15T00:24:57.131Z,16.70
2018-10-15T00:27:25.440Z,16.70
2018-10-15T00:29:53.677Z,16.60
2018-10-15T00:32:21.899Z,16.50
2018-10-15T00:34:50.170Z,16.50
2018-10-15T00:37:18.405Z,16.60
2018-10-15T00:39:46.614Z,16.50
2018-10-15T00:42:14.851Z,16.40
2018-10-15T00:44:43.166Z,16.30
2018-10-15T00:47:11.404Z,16.30
2018-10-15T00:49:39.620Z,16.30
2018-10-15T00:52:07.846Z,16.30
2018-10-15T00:54:36.062Z,16.30
2018-10-15T00:57:04.312Z,16.30
2018-10-15T00:59:32.608Z,16.30
2018-10-15T01:02:00.858Z,16.30
2018-10-15T01:04:29.164Z,16.20
2018-10-15T01:06:57.358Z,16.20
2018-10-15T01:09:25.633Z,16.20
2018-10-15T01:11:53.928Z,16.30
2018-10-15T01:14:22.127Z,16.20
2018-10-15T01:16:50.318Z,16.30
2018-10-15T01:19:18.718Z,16.20
2018-10-15T01:21:46.934Z,16.10
2018-10-15T01:24:15.211Z,16.20
2018-10-15T01:26:44.125Z,16.20
2018-10-15T01:29:13.941Z,16.20
2018-10-15T01:31:42.467Z,16.20
2018-10-15T01:34:11.356Z,16.20
2018-10-15T01:36:39.821Z,16.20
2018-10-15T01:39:13.507Z,16.20
2018-10-15T01:41:42.015Z,16.10
2018-10-15T01:44:10.337Z,16.10
2018-10-15T01:46:38.670Z,16.10
2018-10-15T01:49:06.901Z,16.00
2018-10-15T01:51:35.089Z,16.00
2018-10-15T01:54:03.483Z,16.00
2018-10-15T01:56:31.683Z,15.90
2018-10-15T01:58:59.934Z,15.90
2018-10-15T02:01:33.016Z,15.90
2018-10-15T02:04:01.322Z,15.80
2018-10-15T02:06:29.575Z,15.80
2018-10-15T02:08:57.807Z,15.80
2018-10-15T02:11:26.089Z,15.80
2018-10-15T02:13:54.362Z,15.80
2018-10-15T02:16:23.525Z,15.70
2018-10-15T02:18:51.834Z,15.70
2018-10-15T02:21:20.052Z,15.70
2018-10-15T02:23:48.321Z,15.60
2018-10-15T02:26:16.574Z,15.60
2018-10-15T02:28:44.809Z,15.60
2018-10-15T02:31:13.014Z,15.60
2018-10-15T02:33:41.221Z,15.60
2018-10-15T02:36:09.430Z,15.50
2018-10-15T02:38:37.638Z,15.50
2018-10-15T02:41:07.072Z,15.50
2018-10-15T02:43:35.352Z,15.50
2018-10-15T02:46:03.559Z,15.50
2018-10-15T02:48:31.800Z,15.50
2018-10-15T02:51:00.091Z,15.50
2018-10-15T02:53:28.306Z,15.50
2018-10-15T02:55:56.532Z,15.50
2018-10-15T02:58:24.807Z,15.40
2018-10-15T03:00:53.118Z,15.40
2018-10-15T03:03:21.428Z,15.40
2018-10-15T03:05:49.609Z,15.40
2018-10-15T03:08:17.849Z,15.40
2018-10-15T03:10:46.085Z,15.30
2018-10-15T03:13:14.304Z,15.20
2018-10-15T03:15:42.537Z,15.20
2018-10-15T03:18:10.737Z,15.20
2018-10-15T03:20:38.965Z,15.10
2018-10-15T03:23:07.172Z,15.10
2018-10-15T03:25:35.379Z,15.10
2018-10-15T03:28:03.613Z,15.10
2018-10-15T03:30:32.213Z,15.00
2018-10-15T03:33:00.421Z,15.00
2018-10-15T03:35:28.656Z,14.90
2018-10-15T03:37:56.936Z,14.80
2018-10-15T03:40:25.197Z,14.90
2018-10-15T03:42:53.449Z,14.90
2018-10-15T03:45:21.661Z,14.70
2018-10-15T03:47:49.915Z,14.80
2018-10-15T03:50:18.150Z,14.80
2018-10-15T03:52:46.372Z,14.80
2018-10-15T03:55:14.602Z,14.70
2018-10-15T03:57:42.837Z,14.70
2018-10-15T04:00:11.121Z,14.70
2018-10-15T04:02:39.399Z,14.80
2018-10-15T04:05:07.637Z,14.90
2018-10-15T04:07:35.854Z,14.90
2018-10-15T04:10:04.463Z,14.90
2018-10-15T04:12:32.679Z,15.00
2018-10-15T04:15:00.916Z,14.90
2018-10-15T04:17:29.164Z,14.90
2018-10-15T04:19:57.501Z,14.80
2018-10-15T04:22:26.259Z,14.90
2018-10-15T04:24:54.486Z,14.90
2018-10-15T04:27:22.719Z,14.80
2018-10-15T04:29:51.004Z,14.80
2018-10-15T04:32:19.211Z,14.90
2018-10-15T04:34:47.436Z,14.90
2018-10-15T04:37:15.693Z,14.90
2018-10-15T04:39:43.983Z,14.80
2018-10-15T04:42:12.193Z,14.90
2018-10-15T04:44:40.421Z,14.80
2018-10-15T04:47:08.704Z,14.80
2018-10-15T04:49:37.025Z,14.70
2018-10-15T04:52:05.523Z,14.70
2018-10-15T04:54:33.773Z,14.70
2018-10-15T04:57:02.085Z,14.70
2018-10-15T04:59:30.303Z,14.60
2018-10-15T05:01:58.490Z,14.60
2018-10-15T05:04:26.733Z,14.70
2018-10-15T05:06:54.943Z,14.60
2018-10-15T05:09:23.194Z,14.60
2018-10-15T05:11:51.445Z,14.60
2018-10-15T05:14:19.759Z,14.60
2018-10-15T05:16:47.988Z,14.60
2018-10-15T05:19:16.241Z,14.50
2018-10-15T05:21:44.471Z,14.50
2018-10-15T05:24:12.744Z,14.40
2018-10-15T05:26:40.948Z,14.40
2018-10-15T05:29:09.256Z,14.40
2018-10-15T05:31:37.501Z,14.50
2018-10-15T05:34:06.135Z,14.50
2018-10-15T05:36:34.468Z,14.50
2018-10-15T05:39:02.720Z,14.40
2018-10-15T05:41:30.955Z,14.30
2018-10-15T05:44:00.033Z,14.40
2018-10-15T05:46:28.318Z,14.20
2018-10-15T05:48:56.499Z,14.20
2018-10-15T05:51:24.739Z,14.20
2018-10-15T05:53:52.948Z,14.30
2018-10-15T05:56:21.157Z,14.40
2018-10-15T05:58:49.389Z,14.50
2018-10-15T06:01:17.693Z,14.40
2018-10-15T06:03:46.060Z,14.50
2018-10-15T06:06:14.629Z,14.60
2018-10-15T06:08:42.846Z,14.60
2018-10-15T06:11:11.062Z,14.60
2018-10-15T06:13:39.382Z,14.30
2018-10-15T06:16:07.897Z,14.40
2018-10-15T06:18:36.189Z,14.50
2018-10-15T06:21:05.536Z,14.40
2018-10-15T06:23:33.853Z,14.30
2018-10-15T06:26:02.182Z,14.40
2018-10-15T06:28:30.630Z,14.30
2018-10-15T06:30:58.943Z,14.20
2018-10-15T06:33:27.378Z,14.40
2018-10-15T06:35:55.597Z,14.50
2018-10-15T06:38:24.002Z,14.30
2018-10-15T06:40:52.128Z,14.40
2018-10-15T06:43:20.691Z,14.60
2018-10-15T06:45:49.055Z,14.70
2018-10-15T06:48:17.293Z,14.80
2018-10-15T06:50:45.500Z,14.60
2018-10-15T06:53:13.722Z,14.70
2018-10-15T06:55:41.923Z,14.70
2018-10-15T06:58:10.226Z,14.80
2018-10-15T07:00:38.496Z,14.80
2018-10-15T07:03:06.791Z,14.90
2018-10-15T07:05:35.058Z,15.00
2018-10-15T07:08:03.339Z,15.00
2018-10-15T07:10:31.642Z,15.10
2018-10-15T07:13:00.076Z,15.10
2018-10-15T07:15:28.436Z,15.10
2018-10-15T07:17:56.683Z,15.10
2018-10-15T07:20:25.198Z,15.10
2018-10-15T07:22:53.468Z,15.10
2018-10-15T07:25:31.062Z,15.20
2018-10-15T07:27:59.369Z,15.30
2018-10-15T07:30:29.453Z,15.50
2018-10-15T07:32:57.796Z,15.60
2018-10-15T07:35:26.078Z,15.70
2018-10-15T07:37:54.516Z,15.80
2018-10-15T07:40:22.897Z,15.80
2018-10-15T07:42:51.079Z,15.90
2018-10-15T07:45:19.441Z,16.00
2018-10-15T07:47:47.727Z,16.00
2018-10-15T07:50:16.727Z,16.00
2018-10-15T07:52:45.538Z,15.90
2018-10-15T07:55:13.984Z,15.90
2018-10-15T07:57:42.562Z,15.90
2018-10-15T08:00:14.288Z,16.00
2018-10-15T08:02:42.529Z,16.10
2018-10-15T08:05:10.887Z,16.10
2018-10-15T08:07:39.082Z,16.20
2018-10-15T08:10:08.549Z,16.40
2018-10-15T08:12:36.761Z,16.40
2018-10-15T08:15:05.692Z,16.50
2018-10-15T08:17:34.023Z,16.60
2018-10-15T08:20:02.308Z,16.60
2018-10-15T08:22:30.532Z,16.80
2018-10-15T08:24:58.771Z,16.90
2018-10-15T08:27:27.029Z,17.00
2018-10-15T08:29:55.312Z,17.10
2018-10-15T08:32:23.569Z,17.10
2018-10-15T08:34:51.891Z,17.10
2018-10-15T08:37:20.146Z,17.10
2018-10-15T08:39:48.572Z,17.20
2018-10-15T08:42:16.862Z,17.30
2018-10-15T08:44:45.114Z,17.40
2018-10-15T08:47:13.330Z,17.40
2018-10-15T08:49:41.615Z,17.60
2018-10-15T08:52:09.964Z,17.70
2018-10-15T08:54:38.156Z,17.90
2018-10-15T08:57:06.852Z,17.90
2018-10-15T08:59:35.067Z,18.10
2018-10-15T09:02:03.787Z,18.20
2018-10-15T09:04:32.018Z,18.30
2018-10-15T09:07:00.370Z,18.50
2018-10-15T09:09:28.636Z,18.50
2018-10-15T09:11:56.855Z,18.60
2018-10-15T09:14:25.134Z,18.70
2018-10-15T09:16:53.378Z,18.70
2018-10-15T09:19:21.657Z,18.80
2018-10-15T09:21:50.022Z,18.90
2018-10-15T09:24:18.672Z,19.10
2018-10-15T09:26:47.166Z,19.40
2018-10-15T09:29:15.361Z,19.50
2018-10-15T09:31:43.810Z,19.50
2018-10-15T09:34:12.939Z,19.60
2018-10-15T09:36:48.799Z,19.70
2018-10-15T09:39:16.985Z,19.90
2018-10-15T09:41:45.249Z,20.00
2018-10-15T09:44:13.585Z,20.20
2018-10-15T09:46:41.877Z,20.20
2018-10-15T09:49:10.106Z,20.40
2018-10-15T09:51:38.350Z,20.60
2018-10-15T09:54:06.621Z,20.60
2018-10-15T09:56:34.869Z,20.60
2018-10-15T09:59:03.271Z,20.70
2018-10-15T10:01:37.016Z,20.70
2018-10-15T10:04:05.259Z,21.10
2018-10-15T10:06:33.504Z,21.40
2018-10-15T10:09:01.809Z,22.30
2018-10-15T10:11:30.020Z,23.80
2018-10-15T10:13:58.207Z,25.00
2018-10-15T10:16:26.435Z,25.30
2018-10-15T10:18:54.710Z,25.70
2018-10-15T10:21:22.978Z,27.10
2018-10-15T10:23:51.271Z,28.80
2018-10-15T10:26:19.462Z,30.20
2018-10-15T10:28:47.780Z,30.00
2018-10-15T10:31:15.908Z,30.50
2018-10-15T10:34:05.571Z,31.20
2018-10-15T10:36:33.863Z,32.80
2018-10-15T10:39:05.393Z,34.20
2018-10-15T10:58:51.957Z,35.30
2018-10-15T11:01:20.230Z,33.40
2018-10-15T11:03:48.490Z,30.70
2018-10-15T11:06:16.770Z,29.10
2018-10-15T11:08:44.990Z,28.10
2018-10-15T11:11:13.333Z,27.40
2018-10-15T11:13:41.624Z,27.10
2018-10-15T11:16:09.890Z,27.00
2018-10-15T11:18:38.806Z,26.60
2018-10-15T11:21:07.144Z,26.30
2018-10-15T11:23:35.693Z,25.90
2018-10-15T11:26:04.077Z,25.90
2018-10-15T11:28:32.325Z,25.90
2018-10-15T11:31:00.622Z,25.90
2018-10-15T11:33:28.971Z,25.90
2018-10-15T11:35:57.235Z,25.70
2018-10-15T11:38:25.575Z,25.50
2018-10-15T11:40:53.847Z,25.50
2018-10-15T11:43:22.155Z,25.90
2018-10-15T11:45:50.476Z,26.00
2018-10-15T11:48:18.711Z,25.90
2018-10-15T11:50:46.988Z,25.80
2018-10-15T11:53:15.377Z,25.60
2018-10-15T11:55:43.615Z,25.40
2018-10-15T11:58:12.095Z,26.10
2018-10-15T12:00:40.397Z,27.50
2018-10-15T12:03:08.623Z,29.00
2018-10-15T12:05:36.870Z,29.80
2018-10-15T12:08:05.361Z,30.80
2018-10-15T12:10:33.609Z,32.30
2018-10-15T12:13:01.853Z,33.60
2018-10-15T12:15:30.162Z,35.20
2018-10-15T12:17:58.815Z,36.80
2018-10-15T12:20:27.057Z,37.90
2018-10-15T12:22:55.266Z,38.70
2018-10-15T12:25:23.619Z,37.90
2018-10-15T12:27:51.896Z,36.20
2018-10-15T12:30:20.161Z,34.20
2018-10-15T12:32:48.476Z,32.50
2018-10-15T12:35:17.103Z,31.20
2018-10-15T12:37:46.157Z,30.30
2018-10-15T12:40:15.090Z,29.60
2018-10-15T12:42:43.440Z,29.10
2018-10-15T12:45:13.270Z,29.00
2018-10-15T12:47:41.645Z,29.60
2018-10-15T12:50:11.054Z,30.20
2018-10-15T12:52:39.409Z,30.30
2018-10-15T12:55:08.644Z,30.50
2018-10-15T12:57:37.006Z,30.20
2018-10-15T13:00:05.945Z,29.90
2018-10-15T13:02:34.242Z,29.90
2018-10-15T13:05:21.188Z,29.40
2018-10-15T13:07:49.524Z,29.00
2018-10-15T13:10:17.967Z,28.80
2018-10-15T13:12:46.735Z,29.20
2018-10-15T13:15:14.967Z,29.50
2018-10-15T13:17:43.158Z,29.70
2018-10-15T13:20:11.449Z,29.80
2018-10-15T13:22:39.826Z,29.70
2018-10-15T13:25:09.464Z,28.90
2018-10-15T13:27:38.139Z,28.90
2018-10-15T13:30:07.129Z,29.20
2018-10-15T13:32:35.415Z,29.90
2018-10-15T13:35:03.755Z,30.90
2018-10-15T13:37:32.066Z,32.10
2018-10-15T13:40:00.411Z,33.60
2018-10-15T13:42:28.659Z,34.50
2018-10-15T13:44:56.914Z,35.30
2018-10-15T13:47:25.243Z,35.90
2018-10-15T13:49:53.566Z,35.80
2018-10-15T13:52:21.805Z,36.20
2018-10-15T13:54:50.039Z,36.50
2018-10-15T13:57:18.339Z,36.70
2018-10-15T13:59:46.622Z,37.00
2018-10-15T14:02:14.850Z,36.90
2018-10-15T14:04:43.355Z,36.20
2018-10-15T14:07:11.693Z,34.80
2018-10-15T14:09:39.927Z,33.60
2018-10-15T14:12:08.286Z,32.90
2018-10-15T14:14:36.531Z,33.40
2018-10-15T14:17:04.880Z,33.80
2018-10-15T14:19:33.338Z,34.10
2018-10-15T14:22:01.658Z,34.20
2018-10-15T14:24:29.963Z,34.20
2018-10-15T14:26:58.360Z,34.40
2018-10-15T14:29:27.224Z,34.60
2018-10-15T14:31:55.497Z,34.60
2018-10-15T14:34:23.718Z,33.20
2018-10-15T14:36:52.019Z,31.50
2018-10-15T14:39:20.308Z,30.00
2018-10-15T14:41:48.583Z,29.00
2018-10-15T14:44:16.837Z,28.20
2018-10-15T14:46:45.728Z,27.50
2018-10-15T14:49:14.141Z,26.60
2018-10-15T14:51:42.577Z,26.10
2018-10-15T14:54:10.860Z,25.80
2018-10-15T14:56:39.114Z,25.40
2018-10-15T14:59:07.390Z,24.90
2018-10-15T15:01:35.645Z,24.70
2018-10-15T15:04:04.024Z,24.50
2018-10-15T15:06:32.334Z,24.40
2018-10-15T15:09:00.695Z,24.30
2018-10-15T15:11:40.240Z,24.10
2018-10-15T15:14:14.562Z,23.70
2018-10-15T15:16:44.056Z,23.40
2018-10-15T15:19:12.820Z,23.40
2018-10-15T15:21:41.122Z,23.30
2018-10-15T15:24:09.634Z,23.30
2018-10-15T15:26:38.285Z,23.20
2018-10-15T15:29:06.674Z,23.00
2018-10-15T15:31:34.943Z,22.90
2018-10-15T15:34:03.771Z,22.60
2018-10-15T15:36:32.353Z,22.50
2018-10-15T15:39:00.675Z,22.40
2018-10-15T15:41:29.332Z,22.30
2018-10-15T15:43:57.547Z,22.30
2018-10-15T15:46:26.533Z,22.20
2018-10-15T15:48:55.038Z,22.20
2018-10-15T15:51:23.306Z,21.90
2018-10-15T15:53:51.700Z,21.90
2018-10-15T15:56:20.005Z,21.70
2018-10-15T15:58:48.322Z,21.70
2018-10-15T16:01:16.606Z,21.70
2018-10-15T16:03:44.858Z,21.50
2018-10-15T16:06:13.169Z,21.40
2018-10-15T16:08:41.418Z,21.20
2018-10-15T16:11:09.868Z,21.30
2018-10-15T16:13:38.194Z,21.20
2018-10-15T16:16:06.477Z,21.20
2018-10-15T16:18:34.791Z,21.10
2018-10-15T16:21:03.459Z,21.00
2018-10-15T16:23:31.722Z,21.00
2018-10-15T16:25:59.970Z,20.80
2018-10-15T16:28:28.249Z,20.80
2018-10-15T16:30:56.606Z,20.60
2018-10-15T16:33:24.836Z,20.60
2018-10-15T16:35:53.133Z,20.50
2018-10-15T16:38:21.517Z,20.20
2018-10-15T16:40:49.737Z,20.10
2018-10-15T16:43:18.067Z,20.20
2018-10-15T16:45:46.351Z,20.20
2018-10-15T16:48:14.754Z,20.20
2018-10-15T16:50:42.967Z,20.10
2018-10-15T16:53:11.232Z,20.00
2018-10-15T16:55:39.526Z,19.90
2018-10-15T16:58:07.799Z,19.80
2018-10-15T17:00:36.117Z,19.80
2018-10-15T17:03:04.509Z,19.80
2018-10-15T17:05:32.745Z,19.70
2018-10-15T17:08:00.973Z,19.70
2018-10-15T17:10:30.043Z,19.70
2018-10-15T17:12:58.397Z,19.70
2018-10-15T17:15:26.725Z,19.60
2018-10-15T17:17:55.031Z,19.60
2018-10-15T17:20:23.346Z,19.60
2018-10-15T17:22:51.735Z,19.50
2018-10-15T17:25:20.106Z,19.40
2018-10-15T17:27:48.389Z,19.30
2018-10-15T17:30:16.714Z,19.30
2018-10-15T17:32:45.832Z,19.20
2018-10-15T17:35:15.065Z,19.20
2018-10-15T17:37:43.520Z,19.10
2018-10-15T17:40:12.940Z,19.00
2018-10-15T17:42:41.423Z,19.00
2018-10-15T17:45:12.543Z,18.80
2018-10-15T17:47:41.474Z,18.90
2018-10-15T17:50:10.583Z,18.90
2018-10-15T17:52:39.009Z,18.90
2018-10-15T17:55:08.863Z,18.80
2018-10-15T17:57:37.944Z,18.80
2018-10-15T18:00:08.482Z,18.80
2018-10-15T18:02:37.143Z,18.70
2018-10-15T18:05:06.068Z,18.70
2018-10-15T18:07:34.420Z,18.70
2018-10-15T18:10:02.667Z,18.70
2018-10-15T18:12:31.037Z,18.60
2018-10-15T18:14:59.628Z,18.60
2018-10-15T18:17:28.041Z,18.60
2018-10-15T18:19:56.596Z,18.60
2018-10-15T18:22:25.008Z,18.60
2018-10-15T18:24:53.543Z,18.60
2018-10-15T18:27:22.665Z,18.60
2018-10-15T18:29:51.192Z,18.60
2018-10-15T18:32:19.796Z,18.60
2018-10-15T18:34:48.200Z,18.50
2018-10-15T18:37:16.609Z,18.50
2018-10-15T18:39:45.071Z,18.50
2018-10-15T18:42:13.804Z,18.50
2018-10-15T18:44:42.100Z,18.50
2018-10-15T18:47:10.426Z,18.40
2018-10-15T18:49:38.722Z,18.40
2018-10-15T18:52:07.307Z,18.40
2018-10-15T18:54:35.760Z,18.30
2018-10-15T18:57:04.090Z,18.30
2018-10-15T18:59:32.659Z,18.30
2018-10-15T19:02:01.292Z,18.20
2018-10-15T19:04:29.740Z,18.10
2018-10-15T19:06:58.136Z,18.10
2018-10-15T19:09:27.478Z,18.00
2018-10-15T19:11:56.013Z,18.00
2018-10-15T19:14:24.746Z,17.90
2018-10-15T19:16:53.127Z,17.70
2018-10-15T19:19:21.721Z,17.70
2018-10-15T19:39:09.080Z,17.50
2018-10-15T19:41:37.457Z,17.40
2018-10-15T19:44:05.859Z,17.40
2018-10-15T19:46:35.107Z,17.40
2018-10-15T19:49:03.465Z,17.30
2018-10-15T19:51:34.997Z,17.30
2018-10-15T19:54:04.266Z,17.30
2018-10-15T19:56:34.269Z,17.30
2018-10-15T19:59:04.672Z,17.30
2018-10-15T20:01:33.046Z,17.20
2018-10-15T20:04:01.554Z,17.20
2018-10-15T20:06:29.944Z,17.20
2018-10-15T20:08:58.201Z,17.20
2018-10-15T20:11:26.587Z,17.20
2018-10-15T20:13:55.018Z,17.20
2018-10-15T20:16:23.382Z,17.10
2018-10-15T20:18:51.889Z,17.10
2018-10-15T20:21:20.334Z,17.10
2018-10-15T20:23:49.101Z,17.10
2018-10-15T20:26:17.609Z,17.10
2018-10-15T20:28:46.290Z,17.20
2018-10-15T20:31:14.779Z,17.10
2018-10-15T20:33:43.134Z,17.10
2018-10-15T20:36:11.381Z,17.10
2018-10-15T20:38:39.681Z,17.10
2018-10-15T20:41:08.039Z,17.10
2018-10-15T20:43:36.322Z,17.00
2018-10-15T20:46:04.993Z,17.00
2018-10-15T20:48:33.365Z,17.00
2018-10-15T20:51:01.650Z,17.00
2018-10-15T20:53:29.868Z,17.00
2018-10-15T20:55:58.201Z,16.90
2018-10-15T20:58:26.551Z,16.90
2018-10-15T21:00:54.886Z,16.90
2018-10-15T21:03:23.274Z,16.90
2018-10-15T21:05:51.595Z,16.80
2018-10-15T21:08:22.215Z,16.80
2018-10-15T21:10:50.622Z,16.80
2018-10-15T21:13:18.960Z,16.80
2018-10-15T21:15:47.452Z,16.80
2018-10-15T21:18:15.948Z,16.70
2018-10-15T21:20:44.433Z,16.70
2018-10-15T21:23:14.097Z,16.70
2018-10-15T21:25:42.487Z,16.60
2018-10-15T21:28:10.865Z,16.60
2018-10-15T21:30:39.335Z,16.60
2018-10-15T21:33:07.627Z,16.60
2018-10-15T21:35:36.102Z,16.60
2018-10-15T21:38:04.473Z,16.60
2018-10-15T21:40:32.912Z,16.60
2018-10-15T21:43:03.243Z,16.60
2018-10-15T21:45:31.994Z,16.60
2018-10-15T21:48:00.376Z,16.50
2018-10-15T21:50:28.817Z,16.40
2018-10-15T21:52:57.253Z,16.40
2018-10-15T21:55:25.802Z,16.40
2018-10-15T21:57:54.215Z,16.30
2018-10-15T22:00:22.561Z,16.30
2018-10-15T22:02:50.848Z,16.30
2018-10-15T22:05:19.359Z,16.20
2018-10-15T22:07:47.663Z,16.20
2018-10-15T22:10:21.429Z,16.20
2018-10-15T22:12:49.774Z,16.20
2018-10-15T22:15:18.108Z,16.10
2018-10-15T22:17:46.601Z,16.10
2018-10-15T22:20:14.910Z,16.10
2018-10-15T22:22:43.214Z,16.10
2018-10-15T22:25:11.901Z,16.10
2018-10-15T22:27:40.267Z,16.00
2018-10-15T22:30:11.213Z,16.00
2018-10-15T22:32:39.760Z,16.00
2018-10-15T22:35:08.534Z,16.00
2018-10-15T22:37:36.934Z,15.90
2018-10-15T22:40:05.645Z,15.90
2018-10-15T22:42:33.917Z,15.90
2018-10-15T22:45:02.208Z,15.90
2018-10-15T22:47:30.530Z,15.80
2018-10-15T22:49:58.836Z,15.80
2018-10-15T22:52:27.123Z,15.70
2018-10-15T22:54:55.424Z,15.70
2018-10-15T22:57:23.772Z,15.70
2018-10-15T22:59:52.057Z,15.70
2018-10-15T23:02:20.372Z,15.60
2018-10-15T23:04:48.649Z,15.60
2018-10-15T23:07:16.973Z,15.60
2018-10-15T23:09:45.230Z,15.60
2018-10-15T23:12:13.514Z,15.60
2018-10-15T23:14:41.833Z,15.50
2018-10-15T23:17:10.569Z,15.50
2018-10-15T23:19:38.977Z,15.50
2018-10-15T23:22:07.325Z,15.50
2018-10-15T23:24:35.640Z,15.50
2018-10-15T23:27:04.006Z,15.40
2018-10-15T23:29:32.277Z,15.30
2018-10-15T23:32:00.585Z,15.20
2018-10-15T23:34:28.845Z,15.30
2018-10-15T23:36:57.341Z,15.30
2018-10-15T23:39:25.749Z,15.20
2018-10-15T23:41:54.071Z,15.30
2018-10-15T23:44:22.381Z,15.20
2018-10-15T23:46:50.714Z,15.10
2018-10-15T23:49:19.019Z,15.10
2018-10-15T23:51:47.392Z,15.10
2018-10-15T23:54:15.694Z,15.20
2018-10-15T23:56:43.933Z,15.10
2018-10-15T23:59:12.260Z,15.10
